createdAt,value
2023-01-17T00:01:48.179Z,1.50
2023-01-17T00:04:33.481Z,1.60
2023-01-17T00:07:20.011Z,1.97
2023-01-17T00:09:53.724Z,1.30
2023-01-17T00:12:21.737Z,1.40
2023-01-17T00:14:49.617Z,1.00
2023-01-17T00:17:17.060Z,2.23
2023-01-17T00:20:02.524Z,2.20
2023-01-17T00:22:49.579Z,1.13
2023-01-17T00:25:35.850Z,1.63
2023-01-17T00:28:02.476Z,1.20
2023-01-17T00:30:29.014Z,1.17
2023-01-17T00:32:55.451Z,1.13
2023-01-17T00:35:23.124Z,1.67
2023-01-17T00:38:00.514Z,1.40
2023-01-17T00:40:26.973Z,1.53
2023-01-17T00:42:53.368Z,1.27
2023-01-17T00:45:38.418Z,1.37
2023-01-17T00:48:23.687Z,1.60
2023-01-17T00:51:09.024Z,0.87
2023-01-17T00:53:55.469Z,1.67
2023-01-17T00:56:40.717Z,1.37
2023-01-17T00:59:25.927Z,1.23
2023-01-17T01:04:56.363Z,0.90
2023-01-17T01:07:41.701Z,1.07
2023-01-17T01:10:28.834Z,1.20
2023-01-17T01:13:13.618Z,1.37
2023-01-17T01:15:59.073Z,1.00
2023-01-17T01:18:44.367Z,1.57
2023-01-17T01:21:29.665Z,1.30
2023-01-17T01:24:14.903Z,1.00
2023-01-17T01:27:01.524Z,1.20
2023-01-17T01:29:46.796Z,1.13
2023-01-17T01:32:31.969Z,1.10
2023-01-17T01:34:59.416Z,1.40
2023-01-17T01:37:26.883Z,1.50
2023-01-17T01:39:54.437Z,1.13
2023-01-17T01:42:23.239Z,1.43
2023-01-17T01:44:52.074Z,1.33
2023-01-17T01:47:23.997Z,1.10
2023-01-17T01:49:51.838Z,1.10
2023-01-17T01:52:20.474Z,1.70
2023-01-17T01:54:51.783Z,1.17
2023-01-17T01:57:24.076Z,1.10
2023-01-17T01:59:55.823Z,1.13
2023-01-17T02:02:23.507Z,1.10
2023-01-17T02:04:51.298Z,1.40
2023-01-17T02:07:23.014Z,1.23
2023-01-17T02:09:50.980Z,1.20
2023-01-17T02:12:19.876Z,1.57
2023-01-17T02:14:48.696Z,1.37
2023-01-17T02:17:32.196Z,1.77
2023-01-17T02:20:36.382Z,1.30
2023-01-17T02:23:21.136Z,1.60
2023-01-17T02:26:14.219Z,1.13
2023-01-17T02:28:50.382Z,1.50
2023-01-17T02:31:23.091Z,1.53
2023-01-17T02:33:54.982Z,1.33
2023-01-17T02:36:27.178Z,1.10
2023-01-17T02:38:57.734Z,1.47
2023-01-17T02:41:29.041Z,1.50
2023-01-17T02:43:56.471Z,1.00
2023-01-17T02:46:25.470Z,1.60
2023-01-17T02:48:53.114Z,1.53
2023-01-17T02:51:36.629Z,1.00
2023-01-17T02:54:12.469Z,1.30
2023-01-17T02:56:47.180Z,1.23
2023-01-17T02:59:26.357Z,1.33
2023-01-17T03:02:04.367Z,1.30
2023-01-17T03:04:35.846Z,1.30
2023-01-17T03:07:05.601Z,1.33
2023-01-17T03:09:33.495Z,1.20
2023-01-17T03:12:01.206Z,1.17
2023-01-17T03:14:31.516Z,1.30
2023-01-17T03:17:00.385Z,1.43
2023-01-17T03:19:27.905Z,1.47
2023-01-17T03:21:55.366Z,0.97
2023-01-17T03:24:22.821Z,1.20
2023-01-17T03:26:50.272Z,1.40
2023-01-17T03:29:17.738Z,1.10
2023-01-17T03:31:45.204Z,1.40
2023-01-17T03:34:13.988Z,1.80
2023-01-17T03:36:41.427Z,1.33
2023-01-17T03:39:09.004Z,1.30
2023-01-17T03:41:36.444Z,1.90
2023-01-17T03:44:04.054Z,1.77
2023-01-17T03:46:31.493Z,1.20
2023-01-17T03:48:59.002Z,1.60
2023-01-17T03:51:27.985Z,1.63
2023-01-17T03:53:55.438Z,1.27
2023-01-17T03:56:22.972Z,1.40
2023-01-17T03:58:51.412Z,1.23
2023-01-17T04:01:19.011Z,1.20
2023-01-17T04:03:46.515Z,1.50
2023-01-17T04:06:13.963Z,1.67
2023-01-17T04:08:42.760Z,1.43
2023-01-17T04:11:10.222Z,1.50
2023-01-17T04:13:37.645Z,1.77
2023-01-17T04:16:05.799Z,1.33
2023-01-17T04:18:33.243Z,1.30
2023-01-17T04:21:00.704Z,1.73
2023-01-17T04:23:28.412Z,1.70
2023-01-17T04:25:57.231Z,1.77
2023-01-17T04:28:24.698Z,2.40
2023-01-17T04:30:52.258Z,1.60
2023-01-17T04:33:19.783Z,1.50
2023-01-17T04:35:47.265Z,1.70
2023-01-17T04:38:14.696Z,2.13
2023-01-17T04:40:42.187Z,1.77
2023-01-17T04:43:10.963Z,1.50
2023-01-17T04:45:39.099Z,1.53
2023-01-17T04:48:07.528Z,2.07
2023-01-17T04:50:35.222Z,2.07
2023-01-17T04:53:02.673Z,1.90
2023-01-17T04:55:30.121Z,1.93
2023-01-17T04:57:57.601Z,2.03
2023-01-17T05:00:26.430Z,1.87
2023-01-17T05:02:53.974Z,1.50
2023-01-17T05:05:21.468Z,1.63
2023-01-17T05:07:54.804Z,2.00
2023-01-17T05:10:22.317Z,1.20
2023-01-17T05:12:55.009Z,2.23
2023-01-17T05:15:22.518Z,1.87
2023-01-17T05:17:51.601Z,2.33
2023-01-17T05:20:19.315Z,2.23
2023-01-17T05:22:47.605Z,2.00
2023-01-17T05:25:15.132Z,1.87
2023-01-17T05:27:42.578Z,2.20
2023-01-17T05:30:11.568Z,2.27
2023-01-17T05:32:39.058Z,1.93
2023-01-17T05:35:09.010Z,2.23
2023-01-17T05:37:36.453Z,2.17
2023-01-17T05:40:06.068Z,2.20
2023-01-17T05:42:33.752Z,2.10
2023-01-17T05:45:01.188Z,2.73
2023-01-17T05:47:28.616Z,2.83
2023-01-17T05:49:56.079Z,3.23
2023-01-17T05:52:24.836Z,1.63
2023-01-17T05:54:52.649Z,1.80
2023-01-17T05:57:20.183Z,2.53
2023-01-17T05:59:47.640Z,2.30
2023-01-17T06:02:15.092Z,2.40
2023-01-17T06:04:42.638Z,2.07
2023-01-17T06:07:10.091Z,2.60
2023-01-17T06:09:38.884Z,2.70
2023-01-17T06:12:06.671Z,2.63
2023-01-17T06:14:34.194Z,2.43
2023-01-17T06:17:01.657Z,2.13
2023-01-17T06:19:29.841Z,2.50
2023-01-17T06:21:57.300Z,2.40
2023-01-17T06:24:25.346Z,2.13
2023-01-17T06:26:54.116Z,3.00
2023-01-17T06:29:21.559Z,2.10
2023-01-17T06:31:49.040Z,2.30
2023-01-17T06:34:16.545Z,1.87
2023-01-17T06:36:44.058Z,2.10
2023-01-17T06:39:14.840Z,3.10
2023-01-17T06:41:42.949Z,2.77
2023-01-17T06:44:12.193Z,3.30
2023-01-17T06:46:40.754Z,4.10
2023-01-17T06:49:08.238Z,2.50
2023-01-17T06:51:35.665Z,2.80
2023-01-17T06:54:03.177Z,2.40
2023-01-17T06:56:31.649Z,3.50
2023-01-17T06:58:59.142Z,2.60
2023-01-17T07:01:28.002Z,3.20
2023-01-17T07:03:55.725Z,2.70
2023-01-17T07:06:23.752Z,3.03
2023-01-17T07:08:51.189Z,3.20
2023-01-17T07:11:18.621Z,3.20
2023-01-17T07:13:46.053Z,2.53
2023-01-17T07:16:13.619Z,2.10
2023-01-17T07:18:42.578Z,2.80
2023-01-17T07:21:14.277Z,2.70
2023-01-17T07:23:42.144Z,2.40
2023-01-17T07:26:09.738Z,2.67
2023-01-17T07:28:37.301Z,3.47
2023-01-17T07:31:08.595Z,2.27
2023-01-17T07:33:36.128Z,2.30
2023-01-17T07:36:07.494Z,2.77
2023-01-17T07:38:35.650Z,1.97
2023-01-17T07:41:03.415Z,2.90
2023-01-17T07:43:31.791Z,2.80
2023-01-17T07:46:01.258Z,2.33
2023-01-17T07:48:29.453Z,3.10
2023-01-17T07:50:58.483Z,3.00
2023-01-17T07:53:28.401Z,3.00
2023-01-17T07:55:56.312Z,2.70
2023-01-17T07:58:23.763Z,2.13
2023-01-17T08:00:51.632Z,3.00
2023-01-17T08:03:19.211Z,3.13
2023-01-17T08:05:54.718Z,2.77
2023-01-17T08:08:22.408Z,2.67
2023-01-17T08:10:51.541Z,3.20
2023-01-17T08:13:18.979Z,3.70
2023-01-17T08:15:49.007Z,3.90
2023-01-17T08:18:16.741Z,3.27
2023-01-17T08:20:44.503Z,4.10
2023-01-17T08:23:12.318Z,2.80
2023-01-17T08:25:39.861Z,3.43
2023-01-17T08:28:08.720Z,3.10
2023-01-17T08:30:36.459Z,3.43
2023-01-17T08:33:04.015Z,3.13
2023-01-17T08:35:31.822Z,2.90
2023-01-17T08:38:04.578Z,3.80
2023-01-17T08:40:32.892Z,4.87
2023-01-17T08:43:01.316Z,4.80
2023-01-17T08:45:30.175Z,4.30
2023-01-17T08:47:58.951Z,4.00
2023-01-17T08:50:26.943Z,4.20
2023-01-17T08:53:00.947Z,4.00
2023-01-17T08:55:28.945Z,3.53
2023-01-17T08:57:57.504Z,3.60
2023-01-17T09:00:27.060Z,4.40
2023-01-17T09:02:55.961Z,4.50
2023-01-17T09:05:23.418Z,4.33
2023-01-17T09:07:50.897Z,4.50
2023-01-17T09:10:18.558Z,4.13
2023-01-17T09:12:46.022Z,4.40
2023-01-17T09:15:17.711Z,4.77
2023-01-17T09:17:45.168Z,4.03
2023-01-17T09:20:14.544Z,3.23
2023-01-17T09:22:42.048Z,4.50
2023-01-17T09:25:10.007Z,3.90
2023-01-17T09:27:37.489Z,3.43
2023-01-17T09:30:05.837Z,3.43
2023-01-17T09:32:33.355Z,3.47
2023-01-17T09:35:00.969Z,3.30
2023-01-17T09:37:29.987Z,2.87
2023-01-17T09:39:57.446Z,3.50
2023-01-17T09:42:32.753Z,3.97
2023-01-17T09:45:00.339Z,2.73
2023-01-17T09:47:34.225Z,3.20
2023-01-17T09:50:09.283Z,3.33
2023-01-17T09:52:38.063Z,2.87
2023-01-17T09:55:08.068Z,3.40
2023-01-17T09:57:42.669Z,3.37
2023-01-17T10:00:21.353Z,3.23
2023-01-17T10:02:57.959Z,3.77
2023-01-17T10:05:46.495Z,3.00
2023-01-17T10:08:26.643Z,2.90
2023-01-17T10:11:14.696Z,2.90
2023-01-17T10:13:47.086Z,2.80
2023-01-17T10:16:24.791Z,2.90
2023-01-17T10:19:08.417Z,3.20
2023-01-17T10:21:49.409Z,3.30
2023-01-17T10:24:58.654Z,3.50
2023-01-17T10:27:28.546Z,3.20
2023-01-17T10:29:55.993Z,3.80
2023-01-17T10:32:26.639Z,3.20
2023-01-17T10:34:54.549Z,3.60
2023-01-17T10:37:24.263Z,2.33
2023-01-17T10:39:55.295Z,2.57
2023-01-17T10:42:26.010Z,2.20
2023-01-17T10:45:00.348Z,2.50
2023-01-17T10:47:29.851Z,2.73
2023-01-17T10:49:58.307Z,2.40
2023-01-17T10:52:33.678Z,3.10
2023-01-17T10:55:11.672Z,2.10
2023-01-17T10:57:40.733Z,2.47
2023-01-17T11:00:23.768Z,1.90
2023-01-17T11:02:51.986Z,2.00
2023-01-17T11:05:22.696Z,1.97
2023-01-17T11:08:01.382Z,2.63
2023-01-17T11:10:37.880Z,1.90
2023-01-17T11:13:06.087Z,2.07
2023-01-17T11:15:35.795Z,2.10
2023-01-17T11:18:05.686Z,1.40
2023-01-17T11:20:35.149Z,1.90
2023-01-17T11:23:06.933Z,2.10
2023-01-17T11:25:36.019Z,1.57
2023-01-17T11:28:06.211Z,1.57
2023-01-17T11:30:33.835Z,1.63
2023-01-17T11:33:04.107Z,1.40
2023-01-17T11:35:32.364Z,1.90
2023-01-17T11:38:08.045Z,1.97
2023-01-17T11:40:39.644Z,1.87
2023-01-17T11:43:19.877Z,1.90
2023-01-17T11:45:48.485Z,1.60
2023-01-17T11:48:17.958Z,1.03
2023-01-17T11:50:48.264Z,1.23
2023-01-17T11:53:23.757Z,1.53
2023-01-17T11:56:03.783Z,1.40
2023-01-17T11:58:32.007Z,1.57
2023-01-17T12:01:02.120Z,2.33
2023-01-17T12:03:49.758Z,1.57
2023-01-17T12:06:23.316Z,1.47
2023-01-17T12:09:03.113Z,2.27
2023-01-17T12:11:37.932Z,1.70
2023-01-17T12:14:13.156Z,1.40
2023-01-17T12:16:50.243Z,1.77
2023-01-17T12:19:34.477Z,1.57
2023-01-17T12:22:13.136Z,1.63
2023-01-17T12:25:15.134Z,1.57
2023-01-17T12:27:48.478Z,1.53
2023-01-17T12:30:30.684Z,1.70
2023-01-17T12:33:05.597Z,1.70
2023-01-17T12:35:38.523Z,2.13
2023-01-17T12:38:18.018Z,1.80
2023-01-17T12:40:54.501Z,1.23
2023-01-17T12:43:26.766Z,1.73
2023-01-17T12:45:55.471Z,1.60
2023-01-17T12:48:25.127Z,1.50
2023-01-17T12:50:55.601Z,1.40
2023-01-17T12:53:28.727Z,1.33
2023-01-17T12:56:01.858Z,1.47
2023-01-17T12:58:37.466Z,1.00
2023-01-17T13:01:08.676Z,1.80
2023-01-17T13:03:42.780Z,1.50
2023-01-17T13:06:16.939Z,1.73
2023-01-17T13:08:47.296Z,1.37
2023-01-17T13:11:18.800Z,1.17
2023-01-17T13:13:51.262Z,1.87
2023-01-17T13:16:22.545Z,2.13
2023-01-17T13:18:53.486Z,1.50
2023-01-17T13:21:29.919Z,2.30
2023-01-17T13:24:16.992Z,3.43
2023-01-17T13:27:00.901Z,1.87
2023-01-17T13:29:37.677Z,1.00
2023-01-17T13:32:14.609Z,0.80
2023-01-17T13:34:57.204Z,1.13
2023-01-17T13:37:39.187Z,0.80
2023-01-17T13:40:29.401Z,1.43
2023-01-17T13:42:59.533Z,1.70
2023-01-17T13:45:30.795Z,1.47
2023-01-17T13:48:27.118Z,1.53
2023-01-17T13:50:56.397Z,1.57
2023-01-17T13:53:59.802Z,1.20
2023-01-17T13:56:32.413Z,1.90
2023-01-17T13:59:27.727Z,2.00
2023-01-17T14:01:57.371Z,1.37
2023-01-17T14:04:25.731Z,1.33
2023-01-17T14:07:03.703Z,1.10
2023-01-17T14:09:40.039Z,1.70
2023-01-17T14:12:25.217Z,1.50
2023-01-17T14:14:57.613Z,1.23
2023-01-17T14:17:52.593Z,1.73
2023-01-17T14:20:45.216Z,1.20
2023-01-17T14:23:45.270Z,2.57
2023-01-17T14:26:31.423Z,1.20
2023-01-17T14:29:00.035Z,1.30
2023-01-17T14:31:28.997Z,1.23
2023-01-17T14:34:12.513Z,2.07
2023-01-17T14:36:40.568Z,13.93
2023-01-17T14:39:22.045Z,6.30
2023-01-17T14:41:49.518Z,2.27
2023-01-17T14:44:17.902Z,4.67
2023-01-17T14:46:47.945Z,3.37
2023-01-17T14:49:23.992Z,5.40
2023-01-17T14:52:01.624Z,3.57
2023-01-17T14:54:29.120Z,2.60
2023-01-17T14:57:15.479Z,2.00
2023-01-17T14:59:42.948Z,1.33
2023-01-17T15:02:15.922Z,2.77
2023-01-17T15:04:45.518Z,3.40
2023-01-17T15:07:16.680Z,6.70
2023-01-17T15:09:44.934Z,5.10
2023-01-17T15:12:14.368Z,4.30
2023-01-17T15:14:44.546Z,2.37
2023-01-17T15:17:18.766Z,2.70
2023-01-17T15:19:50.615Z,2.37
2023-01-17T15:22:18.968Z,2.90
2023-01-17T15:24:47.789Z,3.10
2023-01-17T15:27:16.729Z,3.33
2023-01-17T15:29:44.832Z,3.20
2023-01-17T15:32:19.967Z,4.63
2023-01-17T15:34:49.497Z,4.50
2023-01-17T15:37:25.487Z,2.50
2023-01-17T15:39:52.961Z,2.63
2023-01-17T15:42:23.331Z,3.13
2023-01-17T15:44:54.672Z,1.80
2023-01-17T15:47:30.606Z,1.90
2023-01-17T15:49:59.997Z,2.30
2023-01-17T15:52:27.831Z,1.60
2023-01-17T15:54:59.809Z,1.83
2023-01-17T15:57:28.574Z,1.50
2023-01-17T15:59:59.481Z,1.20
2023-01-17T16:02:32.783Z,1.57
2023-01-17T16:05:03.650Z,1.50
2023-01-17T16:07:34.700Z,2.13
2023-01-17T16:10:14.726Z,1.40
2023-01-17T16:12:42.732Z,1.47
2023-01-17T16:15:13.119Z,1.30
2023-01-17T16:17:42.499Z,1.70
2023-01-17T16:20:15.929Z,1.60
2023-01-17T16:22:44.031Z,1.40
2023-01-17T16:25:15.417Z,1.43
2023-01-17T16:27:43.213Z,1.37
2023-01-17T16:30:12.238Z,1.40
2023-01-17T16:32:39.818Z,2.30
2023-01-17T16:35:08.245Z,3.23
2023-01-17T16:37:37.532Z,5.07
2023-01-17T16:40:06.005Z,6.40
2023-01-17T16:42:34.525Z,4.10
2023-01-17T16:45:02.075Z,3.30
2023-01-17T16:47:29.715Z,3.57
2023-01-17T16:49:57.320Z,2.73
2023-01-17T16:52:24.997Z,2.30
2023-01-17T16:54:55.249Z,2.67
2023-01-17T16:57:22.968Z,2.33
2023-01-17T16:59:51.125Z,3.17
2023-01-17T17:02:19.515Z,2.80
2023-01-17T17:04:47.198Z,2.83
2023-01-17T17:07:14.955Z,4.13
2023-01-17T17:09:42.639Z,4.27
2023-01-17T17:12:11.527Z,4.57
2023-01-17T17:14:39.410Z,5.13
2023-01-17T17:17:07.622Z,4.73
2023-01-17T17:19:35.633Z,4.50
2023-01-17T17:22:03.229Z,5.07
2023-01-17T17:24:30.835Z,5.67
2023-01-17T17:26:58.546Z,5.20
2023-01-17T17:29:27.447Z,5.40
2023-01-17T17:31:54.995Z,5.50
2023-01-17T17:34:23.261Z,8.40
2023-01-17T17:36:53.037Z,7.53
2023-01-17T17:39:20.787Z,5.20
2023-01-17T17:41:48.544Z,5.20
2023-01-17T17:44:16.527Z,5.33
2023-01-17T17:46:49.088Z,4.47
2023-01-17T17:49:17.982Z,5.67
2023-01-17T17:51:45.734Z,5.07
2023-01-17T17:54:15.189Z,4.23
2023-01-17T17:56:46.462Z,4.50
2023-01-17T17:59:18.084Z,6.43
2023-01-17T18:01:47.670Z,6.10
2023-01-17T18:04:15.425Z,4.73
2023-01-17T18:06:43.347Z,3.70
2023-01-17T18:09:12.560Z,4.83
2023-01-17T18:11:41.791Z,5.50
2023-01-17T18:14:11.266Z,8.40
2023-01-17T18:16:41.632Z,8.10
2023-01-17T18:19:15.940Z,8.73
2023-01-17T18:21:43.893Z,5.50
2023-01-17T18:24:12.886Z,6.30
2023-01-17T18:26:42.022Z,6.13
2023-01-17T18:29:14.044Z,4.53
2023-01-17T18:31:42.047Z,4.97
2023-01-17T18:34:11.960Z,4.97
2023-01-17T18:36:39.603Z,4.30
2023-01-17T18:39:11.865Z,8.80
2023-01-17T18:41:39.405Z,6.00
2023-01-17T18:44:07.751Z,5.63
2023-01-17T18:46:36.164Z,5.20
2023-01-17T18:49:04.359Z,4.37
2023-01-17T18:51:34.489Z,4.80
2023-01-17T18:54:05.320Z,5.90
2023-01-17T18:56:35.075Z,5.00
2023-01-17T18:59:03.299Z,4.40
2023-01-17T19:01:34.285Z,4.23
2023-01-17T19:04:04.461Z,3.60
2023-01-17T19:06:35.089Z,5.40
2023-01-17T19:09:03.050Z,4.63
2023-01-17T19:11:30.971Z,4.50
2023-01-17T19:13:58.705Z,5.30
2023-01-17T19:16:28.973Z,4.15
2023-01-17T19:18:57.635Z,6.87
2023-01-17T19:21:27.360Z,4.40
2023-01-17T19:23:57.115Z,4.73
2023-01-17T19:26:25.504Z,4.90
2023-01-17T19:28:53.870Z,4.40
2023-01-17T19:31:22.692Z,4.63
2023-01-17T19:33:51.656Z,4.47
2023-01-17T19:36:20.960Z,4.13
2023-01-17T19:39:03.043Z,7.27
2023-01-17T19:41:34.162Z,6.10
2023-01-17T19:44:03.217Z,5.30
2023-01-17T19:46:31.058Z,4.57
2023-01-17T19:48:59.625Z,6.43
2023-01-17T19:51:27.750Z,11.23
2023-01-17T19:53:55.738Z,8.87
2023-01-17T19:56:26.475Z,7.73
2023-01-17T19:58:57.176Z,4.87
2023-01-17T20:01:28.511Z,5.90
2023-01-17T20:03:57.909Z,7.97
2023-01-17T20:06:27.697Z,9.27
2023-01-17T20:08:55.463Z,4.93
2023-01-17T20:11:24.716Z,5.60
2023-01-17T20:13:54.268Z,7.93
2023-01-17T20:16:24.759Z,6.47
2023-01-17T20:18:52.776Z,9.83
2023-01-17T20:21:21.893Z,14.43
2023-01-17T20:23:50.145Z,11.00
2023-01-17T20:26:19.245Z,8.63
2023-01-17T20:28:49.374Z,8.57
2023-01-17T20:31:23.816Z,6.40
2023-01-17T20:33:53.991Z,6.33
2023-01-17T20:36:22.523Z,5.10
2023-01-17T20:38:50.403Z,5.50
2023-01-17T20:41:19.350Z,4.40
2023-01-17T20:43:48.839Z,4.90
2023-01-17T20:46:16.575Z,4.83
2023-01-17T20:48:46.328Z,5.50
2023-01-17T20:51:15.006Z,5.53
2023-01-17T20:53:44.238Z,5.50
2023-01-17T20:56:13.463Z,4.40
2023-01-17T20:58:41.038Z,5.13
2023-01-17T21:01:10.333Z,4.77
2023-01-17T21:03:39.263Z,4.30
2023-01-17T21:06:10.072Z,5.73
2023-01-17T21:08:40.740Z,5.90
2023-01-17T21:11:09.945Z,5.30
2023-01-17T21:13:37.684Z,4.70
2023-01-17T21:16:05.788Z,4.83
2023-01-17T21:18:33.598Z,4.43
2023-01-17T21:21:03.875Z,4.50
2023-01-17T21:23:32.738Z,5.20
2023-01-17T21:26:00.254Z,5.03
2023-01-17T21:28:30.227Z,4.10
2023-01-17T21:30:58.279Z,4.93
2023-01-17T21:33:29.256Z,5.20
2023-01-17T21:35:59.087Z,5.07
2023-01-17T21:38:26.683Z,5.03
2023-01-17T21:40:57.750Z,6.20
2023-01-17T21:43:25.416Z,5.50
2023-01-17T21:45:53.499Z,5.07
2023-01-17T21:48:21.336Z,4.30
2023-01-17T21:50:51.951Z,4.60
2023-01-17T21:53:19.499Z,4.83
2023-01-17T21:56:10.037Z,4.53
2023-01-17T21:58:44.991Z,4.45
2023-01-17T22:01:17.823Z,3.87
2023-01-17T22:03:46.192Z,4.17
2023-01-17T22:06:13.853Z,4.30
2023-01-17T22:08:41.879Z,3.60
2023-01-17T22:11:11.015Z,3.00
2023-01-17T22:13:40.984Z,3.27
2023-01-17T22:16:11.408Z,4.17
2023-01-17T22:18:40.232Z,4.37
2023-01-17T22:21:09.704Z,4.13
2023-01-17T22:23:39.247Z,3.75
2023-01-17T22:26:08.721Z,4.03
2023-01-17T22:28:36.317Z,4.40
2023-01-17T22:31:10.579Z,4.13
2023-01-17T22:33:38.921Z,3.55
2023-01-17T22:36:07.194Z,3.73
2023-01-17T22:38:35.278Z,3.63
2023-01-17T22:41:07.793Z,4.40
2023-01-17T22:43:37.148Z,3.92
2023-01-17T22:46:05.390Z,3.20
2023-01-17T22:48:34.438Z,3.90
2023-01-17T22:51:03.374Z,3.10
2023-01-17T22:53:31.400Z,3.40
2023-01-17T22:56:00.820Z,3.13
2023-01-17T22:58:28.803Z,2.83
2023-01-17T23:01:04.750Z,3.97
2023-01-17T23:03:33.923Z,2.77
2023-01-17T23:06:09.157Z,2.93
2023-01-17T23:08:37.214Z,3.27
2023-01-17T23:11:25.203Z,3.50
2023-01-17T23:13:54.030Z,3.60
2023-01-17T23:16:47.739Z,3.70
2023-01-17T23:19:26.151Z,3.40
2023-01-17T23:22:13.059Z,4.30
2023-01-17T23:24:43.251Z,3.17
2023-01-17T23:27:33.201Z,3.73
2023-01-17T23:30:00.749Z,3.10
2023-01-17T23:32:28.899Z,3.90
2023-01-17T23:34:57.975Z,3.40
2023-01-17T23:37:49.911Z,3.70
2023-01-17T23:40:18.394Z,3.13
2023-01-17T23:43:03.617Z,2.90
2023-01-17T23:45:31.286Z,3.03
2023-01-17T23:47:58.825Z,2.77
2023-01-17T23:50:27.873Z,2.87
2023-01-17T23:52:55.798Z,2.83
2023-01-17T23:55:23.590Z,3.07
2023-01-17T23:57:51.633Z,3.13
